createdAt,value
2022-10-30T00:01:04.474Z,30.63
2022-10-30T00:03:33.070Z,29.85
2022-10-30T00:06:05.800Z,29.67
2022-10-30T00:08:34.619Z,28.13
2022-10-30T00:11:09.359Z,29.38
2022-10-30T00:13:38.153Z,29.58
2022-10-30T00:16:09.305Z,28.25
2022-10-30T00:18:38.609Z,29.88
2022-10-30T00:21:08.895Z,28.70
2022-10-30T00:23:37.930Z,29.08
2022-10-30T00:26:08.637Z,28.85
2022-10-30T00:28:37.093Z,28.40
2022-10-30T00:31:06.713Z,30.17
2022-10-30T00:33:35.961Z,27.08
2022-10-30T00:36:06.756Z,28.20
2022-10-30T00:41:04.833Z,26.00
2022-10-30T00:43:37.052Z,27.52
2022-10-30T00:46:10.111Z,29.77
2022-10-30T00:48:39.010Z,27.85
2022-10-30T00:51:09.244Z,29.38
2022-10-30T00:56:08.303Z,27.02
2022-10-30T00:58:42.215Z,26.63
2022-10-30T01:01:13.364Z,28.90
2022-10-30T01:03:42.358Z,27.38
2022-10-30T01:06:13.102Z,26.70
2022-10-30T01:08:42.655Z,27.67
2022-10-30T01:11:11.852Z,28.47
2022-10-30T01:13:42.791Z,28.98
2022-10-30T01:16:34.775Z,28.60
2022-10-30T01:19:13.701Z,27.77
2022-10-30T01:21:51.961Z,27.50
2022-10-30T01:24:32.220Z,30.08
2022-10-30T01:32:15.446Z,27.15
2022-10-30T01:34:50.571Z,28.65
2022-10-30T01:37:23.637Z,29.13
2022-10-30T01:39:52.218Z,29.23
2022-10-30T01:42:54.176Z,29.42
2022-10-30T01:45:40.969Z,28.55
2022-10-30T01:48:21.327Z,29.35
2022-10-30T01:50:57.872Z,27.33
2022-10-30T01:53:37.466Z,30.58
2022-10-30T01:56:16.949Z,30.25
2022-10-30T01:58:52.040Z,29.57
2022-10-30T02:01:24.307Z,29.95
2022-10-30T02:03:53.174Z,30.40
2022-10-30T02:06:22.580Z,33.00
2022-10-30T02:08:51.987Z,33.80
2022-10-30T02:11:20.651Z,31.88
2022-10-30T02:13:49.041Z,31.02
2022-10-30T02:16:17.710Z,32.03
2022-10-30T02:18:47.783Z,32.80
2022-10-30T02:21:17.975Z,32.35
2022-10-30T02:26:15.982Z,31.10
2022-10-30T02:28:44.215Z,32.05
2022-10-30T02:31:12.904Z,30.80
2022-10-30T02:33:45.965Z,29.70
2022-10-30T02:36:15.660Z,29.73
2022-10-30T02:38:46.059Z,29.77
2022-10-30T02:41:14.800Z,31.67
2022-10-30T02:43:43.679Z,29.20
2022-10-30T02:46:12.275Z,28.17
2022-10-30T02:48:40.926Z,29.73
2022-10-30T02:51:10.339Z,27.73
2022-10-30T02:53:39.809Z,28.58
2022-10-30T02:56:12.984Z,28.90
2022-10-30T02:58:42.842Z,30.88
2022-10-30T03:01:13.255Z,28.17
2022-10-30T03:03:42.858Z,29.02
2022-10-30T03:06:15.719Z,29.85
2022-10-30T03:08:45.014Z,28.98
2022-10-30T03:11:16.601Z,29.55
2022-10-30T03:13:45.837Z,28.98
2022-10-30T03:16:15.804Z,28.27
2022-10-30T03:18:44.484Z,28.50
2022-10-30T03:21:15.782Z,29.88
2022-10-30T03:23:46.211Z,30.05
2022-10-30T03:26:16.363Z,27.60
2022-10-30T03:29:06.907Z,30.00
2022-10-30T03:31:35.644Z,31.92
2022-10-30T03:34:33.671Z,27.77
2022-10-30T03:37:06.652Z,30.15
2022-10-30T03:39:35.792Z,29.63
2022-10-30T03:42:06.586Z,29.48
2022-10-30T03:44:35.249Z,29.33
2022-10-30T03:47:05.212Z,28.50
2022-10-30T03:49:38.657Z,29.42
2022-10-30T03:52:11.808Z,28.50
2022-10-30T03:54:40.425Z,30.90
2022-10-30T03:57:11.467Z,29.27
2022-10-30T04:00:00.015Z,29.38
2022-10-30T04:02:46.557Z,30.80
2022-10-30T04:05:16.874Z,30.60
2022-10-30T04:07:45.457Z,31.48
2022-10-30T04:10:20.870Z,30.92
2022-10-30T04:12:54.982Z,31.80
2022-10-30T04:15:25.204Z,29.75
2022-10-30T04:17:54.458Z,29.58
2022-10-30T04:20:24.906Z,29.48
2022-10-30T04:25:26.205Z,29.52
2022-10-30T04:27:56.892Z,30.85
2022-10-30T04:30:27.331Z,31.23
2022-10-30T04:35:26.548Z,29.27
2022-10-30T04:37:55.457Z,30.50
2022-10-30T04:40:24.792Z,32.13
2022-10-30T04:43:00.049Z,29.08
2022-10-30T04:45:29.185Z,31.70
2022-10-30T04:48:02.864Z,29.95
2022-10-30T04:50:33.524Z,30.25
2022-10-30T04:53:03.180Z,31.08
2022-10-30T04:55:32.326Z,30.58
2022-10-30T04:58:04.240Z,34.35
2022-10-30T05:00:37.040Z,31.75
2022-10-30T05:03:18.779Z,34.22
2022-10-30T05:05:48.058Z,33.08
2022-10-30T05:08:16.718Z,33.03
2022-10-30T05:10:45.100Z,31.75
2022-10-30T05:13:17.092Z,33.38
2022-10-30T05:15:45.873Z,33.80
2022-10-30T05:18:14.630Z,32.08
2022-10-30T05:20:43.665Z,29.90
2022-10-30T05:23:12.738Z,31.00
2022-10-30T05:25:41.138Z,30.30
2022-10-30T05:28:11.555Z,29.75
2022-10-30T05:30:48.440Z,30.90
2022-10-30T05:33:36.599Z,27.23
2022-10-30T05:36:06.039Z,29.38
2022-10-30T05:38:34.686Z,28.95
2022-10-30T05:41:03.499Z,29.90
2022-10-30T05:43:31.877Z,28.55
2022-10-30T05:46:02.066Z,29.63
2022-10-30T05:48:30.886Z,28.88
2022-10-30T05:50:59.675Z,28.15
2022-10-30T05:53:30.831Z,28.38
2022-10-30T05:56:00.848Z,29.70
2022-10-30T05:58:33.214Z,29.50
2022-10-30T06:01:08.410Z,29.73
2022-10-30T06:03:46.655Z,29.85
2022-10-30T06:06:15.509Z,29.42
2022-10-30T06:08:45.287Z,29.27
2022-10-30T06:12:11.466Z,29.15
2022-10-30T06:15:06.569Z,29.27
2022-10-30T06:17:35.463Z,26.08
2022-10-30T06:20:16.320Z,27.52
2022-10-30T06:23:22.950Z,27.83
2022-10-30T06:26:00.231Z,27.98
2022-10-30T06:28:45.397Z,29.15
2022-10-30T06:31:16.004Z,28.95
2022-10-30T06:33:44.928Z,27.05
2022-10-30T06:36:17.563Z,27.38
2022-10-30T06:38:46.689Z,28.35
2022-10-30T06:41:18.766Z,27.38
2022-10-30T06:44:12.202Z,27.48
2022-10-30T06:46:41.896Z,26.95
2022-10-30T06:49:10.889Z,27.40
2022-10-30T06:51:40.844Z,27.05
2022-10-30T06:54:09.549Z,27.60
2022-10-30T06:56:41.055Z,26.25
2022-10-30T06:59:49.544Z,25.05
2022-10-30T07:02:44.512Z,25.33
2022-10-30T07:05:15.549Z,24.80
2022-10-30T07:07:43.890Z,25.42
2022-10-30T07:10:12.650Z,23.95
2022-10-30T07:13:02.004Z,25.23
2022-10-30T07:15:56.472Z,25.83
2022-10-30T07:18:33.157Z,24.50
2022-10-30T07:21:03.401Z,25.92
2022-10-30T07:23:33.649Z,24.85
2022-10-30T07:26:12.807Z,23.35
2022-10-30T07:28:47.127Z,25.30
2022-10-30T07:31:29.037Z,23.40
2022-10-30T07:34:27.005Z,24.58
2022-10-30T07:37:24.606Z,22.38
2022-10-30T07:40:12.942Z,22.20
2022-10-30T07:43:02.561Z,20.38
2022-10-30T07:45:48.835Z,21.05
2022-10-30T07:48:34.158Z,20.50
2022-10-30T07:51:09.535Z,21.33
2022-10-30T07:53:39.352Z,21.48
2022-10-30T07:56:09.178Z,21.23
2022-10-30T07:58:52.493Z,18.45
2022-10-30T08:01:21.287Z,20.63
2022-10-30T08:03:52.068Z,18.40
2022-10-30T08:06:28.838Z,19.08
2022-10-30T08:08:58.555Z,18.67
2022-10-30T08:11:29.751Z,19.35
2022-10-30T08:14:00.422Z,18.52
2022-10-30T08:16:28.917Z,19.15
2022-10-30T08:21:29.568Z,18.25
2022-10-30T08:24:01.178Z,16.88
2022-10-30T08:26:32.461Z,17.77
2022-10-30T08:29:01.138Z,18.52
2022-10-30T08:31:31.728Z,18.50
2022-10-30T08:34:04.578Z,19.05
2022-10-30T08:36:38.737Z,19.50
2022-10-30T08:39:07.456Z,17.95
2022-10-30T08:41:44.037Z,17.80
2022-10-30T08:44:12.887Z,17.83
2022-10-30T08:47:01.419Z,18.25
2022-10-30T08:49:31.565Z,18.15
2022-10-30T08:52:02.086Z,18.25
2022-10-30T08:54:30.744Z,17.63
2022-10-30T08:56:59.443Z,18.40
2022-10-30T08:59:28.199Z,18.20
2022-10-30T09:01:59.818Z,17.42
2022-10-30T09:04:48.640Z,18.02
2022-10-30T09:07:58.199Z,18.05
2022-10-30T09:11:01.143Z,19.35
2022-10-30T09:13:30.431Z,16.75
2022-10-30T09:16:01.373Z,17.70
2022-10-30T09:18:32.157Z,17.92
2022-10-30T09:21:04.900Z,18.42
2022-10-30T09:23:39.256Z,17.35
2022-10-30T09:26:40.405Z,18.70
2022-10-30T09:29:18.644Z,17.55
2022-10-30T09:32:01.907Z,16.25
2022-10-30T09:34:32.802Z,18.27
2022-10-30T09:37:38.905Z,16.50
2022-10-30T09:40:25.019Z,16.50
2022-10-30T09:42:56.427Z,17.17
2022-10-30T09:45:49.397Z,21.23
2022-10-30T09:48:45.805Z,16.33
2022-10-30T09:51:31.263Z,15.85
2022-10-30T09:54:10.466Z,14.52
2022-10-30T09:56:46.926Z,13.18
2022-10-30T09:59:24.434Z,12.93
2022-10-30T10:01:55.521Z,10.73
2022-10-30T10:04:27.388Z,10.43
2022-10-30T10:07:22.058Z,10.07
2022-10-30T10:10:03.016Z,10.77
2022-10-30T10:13:01.399Z,9.70
2022-10-30T10:15:36.434Z,10.48
2022-10-30T10:18:12.908Z,9.95
2022-10-30T10:20:43.875Z,10.07
2022-10-30T10:23:18.525Z,9.90
2022-10-30T10:25:54.236Z,11.18
2022-10-30T10:28:42.421Z,11.00
2022-10-30T10:31:20.130Z,9.75
2022-10-30T10:33:59.339Z,10.73
2022-10-30T10:36:33.399Z,10.82
2022-10-30T10:39:13.905Z,9.63
2022-10-30T10:41:54.919Z,10.38
2022-10-30T10:44:33.539Z,9.93
2022-10-30T10:47:18.745Z,9.40
2022-10-30T10:49:57.926Z,8.55
2022-10-30T10:52:34.486Z,7.35
2022-10-30T10:55:07.106Z,7.95
2022-10-30T10:57:39.760Z,8.00
2022-10-30T11:00:10.179Z,7.72
2022-10-30T11:02:42.670Z,7.45
2022-10-30T11:05:19.813Z,8.45
2022-10-30T11:07:49.539Z,8.20
2022-10-30T11:10:20.385Z,7.40
2022-10-30T11:12:50.860Z,8.18
2022-10-30T11:18:01.558Z,7.45
2022-10-30T11:20:34.839Z,7.93
2022-10-30T11:23:03.539Z,7.30
2022-10-30T11:25:36.149Z,7.28
2022-10-30T11:28:07.217Z,6.93
2022-10-30T11:30:35.864Z,7.38
2022-10-30T11:33:22.825Z,6.55
2022-10-30T11:35:51.468Z,6.30
2022-10-30T11:38:21.373Z,5.95
2022-10-30T11:40:52.942Z,6.23
2022-10-30T11:43:25.611Z,6.97
2022-10-30T11:45:54.895Z,6.40
2022-10-30T11:48:27.357Z,6.53
2022-10-30T11:50:59.631Z,6.75
2022-10-30T11:53:34.217Z,6.10
2022-10-30T11:56:03.652Z,6.80
2022-10-30T11:58:36.239Z,5.15
2022-10-30T12:01:07.406Z,6.13
2022-10-30T12:03:38.039Z,6.55
2022-10-30T12:06:11.283Z,6.25
2022-10-30T12:08:39.911Z,5.47
2022-10-30T12:11:08.673Z,4.93
2022-10-30T12:13:41.915Z,4.32
2022-10-30T12:16:20.473Z,3.70
2022-10-30T12:18:56.830Z,3.85
2022-10-30T12:21:26.041Z,3.55
2022-10-30T12:23:57.891Z,3.83
2022-10-30T12:26:27.241Z,3.83
2022-10-30T12:29:00.832Z,3.40
2022-10-30T12:31:36.027Z,3.70
2022-10-30T12:34:13.580Z,3.53
2022-10-30T12:36:47.378Z,3.33
2022-10-30T12:39:22.530Z,3.05
2022-10-30T12:41:58.570Z,3.30
2022-10-30T12:44:30.650Z,2.95
2022-10-30T12:47:02.585Z,2.70
2022-10-30T12:49:37.924Z,2.38
2022-10-30T12:52:10.282Z,2.65
2022-10-30T12:54:44.209Z,2.20
2022-10-30T12:57:16.457Z,2.83
2022-10-30T12:59:56.311Z,3.17
2022-10-30T13:02:44.574Z,2.90
2022-10-30T13:05:26.872Z,2.88
2022-10-30T13:08:04.210Z,3.17
2022-10-30T13:10:35.274Z,2.88
2022-10-30T13:13:09.326Z,2.75
2022-10-30T13:15:43.724Z,2.58
2022-10-30T13:18:17.835Z,2.70
2022-10-30T13:20:57.680Z,3.97
2022-10-30T13:23:29.773Z,3.13
2022-10-30T13:26:08.721Z,2.90
2022-10-30T13:28:43.311Z,3.30
2022-10-30T13:31:19.190Z,3.35
2022-10-30T13:33:52.686Z,3.22
2022-10-30T13:36:26.923Z,3.88
2022-10-30T13:39:00.232Z,3.80
2022-10-30T13:41:36.274Z,3.85
2022-10-30T13:44:09.257Z,4.60
2022-10-30T13:46:52.640Z,5.00
2022-10-30T13:49:39.906Z,4.55
2022-10-30T13:52:14.712Z,5.40
2022-10-30T13:54:47.400Z,4.90
2022-10-30T13:57:20.319Z,5.18
2022-10-30T13:59:55.131Z,4.70
2022-10-30T14:02:44.287Z,5.22
2022-10-30T14:05:24.402Z,5.78
2022-10-30T14:10:30.191Z,4.65
2022-10-30T14:13:12.701Z,5.22
2022-10-30T14:15:43.939Z,6.03
2022-10-30T14:18:31.770Z,5.93
2022-10-30T14:21:01.340Z,7.05
2022-10-30T14:24:55.556Z,6.68
2022-10-30T14:27:28.333Z,5.72
2022-10-30T14:30:47.096Z,6.95
2022-10-30T14:34:47.531Z,6.32
2022-10-30T14:37:16.537Z,5.90
2022-10-30T14:39:46.355Z,6.60
2022-10-30T14:42:16.548Z,6.30
2022-10-30T14:45:06.423Z,6.63
2022-10-30T14:47:53.849Z,6.95
2022-10-30T14:50:34.241Z,7.13
2022-10-30T14:53:31.803Z,8.20
2022-10-30T14:56:06.564Z,7.40
2022-10-30T14:58:36.411Z,8.45
2022-10-30T15:01:29.096Z,8.27
2022-10-30T15:04:15.835Z,8.80
2022-10-30T15:06:58.768Z,8.15
2022-10-30T15:09:40.953Z,7.82
2022-10-30T15:12:23.901Z,8.90
2022-10-30T15:14:55.821Z,8.40
2022-10-30T15:17:29.655Z,9.35
2022-10-30T15:19:59.603Z,8.88
2022-10-30T15:22:31.314Z,9.45
2022-10-30T15:25:00.386Z,10.48
2022-10-30T15:27:29.390Z,9.23
2022-10-30T15:30:01.025Z,10.80
2022-10-30T15:32:29.667Z,10.55
2022-10-30T15:35:03.043Z,10.88
2022-10-30T15:37:33.436Z,11.43
2022-10-30T15:40:20.330Z,10.32
2022-10-30T15:42:49.980Z,10.77
2022-10-30T15:45:20.099Z,11.60
2022-10-30T15:47:50.484Z,10.80
2022-10-30T15:52:54.072Z,11.57
2022-10-30T15:55:27.181Z,12.05
2022-10-30T15:58:03.554Z,11.70
2022-10-30T16:00:35.781Z,11.48
2022-10-30T16:03:06.343Z,12.70
2022-10-30T16:05:35.459Z,13.02
2022-10-30T16:08:12.324Z,12.50
2022-10-30T16:10:46.932Z,12.73
2022-10-30T16:13:19.056Z,12.70
2022-10-30T16:15:49.794Z,13.70
2022-10-30T16:18:21.368Z,13.27
2022-10-30T16:20:51.699Z,12.93
2022-10-30T16:23:22.363Z,14.63
2022-10-30T16:25:55.241Z,13.20
2022-10-30T16:28:25.693Z,13.15
2022-10-30T16:33:26.681Z,14.00
2022-10-30T16:35:56.200Z,15.98
2022-10-30T16:38:30.167Z,14.33
2022-10-30T16:40:58.678Z,16.20
2022-10-30T16:43:29.950Z,16.00
2022-10-30T16:46:05.973Z,14.77
2022-10-30T16:48:36.746Z,16.92
2022-10-30T16:51:05.966Z,20.13
2022-10-30T16:53:36.210Z,19.45
2022-10-30T16:56:05.136Z,18.73
2022-10-30T16:58:33.536Z,19.88
2022-10-30T17:01:07.101Z,18.58
2022-10-30T17:03:38.341Z,18.38
2022-10-30T17:06:08.921Z,18.55
2022-10-30T17:08:42.859Z,19.15
2022-10-30T17:11:19.890Z,18.70
2022-10-30T17:14:17.886Z,19.70
2022-10-30T17:16:54.361Z,19.52
2022-10-30T17:19:48.340Z,18.75
2022-10-30T17:22:20.424Z,19.25
2022-10-30T17:24:50.508Z,18.05
2022-10-30T17:27:31.534Z,19.02
2022-10-30T17:30:00.199Z,30.65
2022-10-30T17:32:29.906Z,22.80
2022-10-30T17:35:02.067Z,20.58
2022-10-30T17:37:30.448Z,19.88
2022-10-30T17:40:00.399Z,20.17
2022-10-30T17:42:29.054Z,17.08
2022-10-30T17:44:57.693Z,19.75
2022-10-30T17:47:26.372Z,17.52
2022-10-30T17:49:54.612Z,16.88
2022-10-30T17:52:23.198Z,15.82
2022-10-30T17:54:52.159Z,18.23
2022-10-30T17:57:22.881Z,17.55
2022-10-30T17:59:51.472Z,17.27
2022-10-30T18:02:21.981Z,17.05
2022-10-30T18:04:52.665Z,17.08
2022-10-30T18:07:21.362Z,18.30
2022-10-30T18:09:50.050Z,19.52
2022-10-30T18:12:19.329Z,19.73
2022-10-30T18:14:49.280Z,18.65
2022-10-30T18:17:17.865Z,19.15
2022-10-30T18:19:46.124Z,21.15
2022-10-30T18:22:14.704Z,20.92
2022-10-30T18:24:43.481Z,19.27
2022-10-30T18:27:12.213Z,18.48
2022-10-30T18:29:40.793Z,19.88
2022-10-30T18:32:11.870Z,20.83
2022-10-30T18:34:40.142Z,20.02
2022-10-30T18:37:09.920Z,19.90
2022-10-30T18:39:38.698Z,21.10
2022-10-30T18:42:07.301Z,21.63
2022-10-30T18:44:35.900Z,21.40
2022-10-30T18:47:06.602Z,19.65
2022-10-30T18:52:04.884Z,20.97
2022-10-30T18:54:33.548Z,20.92
2022-10-30T18:57:02.472Z,19.80
2022-10-30T18:59:31.114Z,21.42
2022-10-30T19:01:59.990Z,20.25
2022-10-30T19:04:28.451Z,22.27
2022-10-30T19:06:58.568Z,21.38
2022-10-30T19:09:27.295Z,24.23
2022-10-30T19:11:55.846Z,20.90
2022-10-30T19:14:25.218Z,19.95
2022-10-30T19:16:53.492Z,20.52
2022-10-30T19:19:22.161Z,21.00
2022-10-30T19:21:52.591Z,20.35
2022-10-30T19:24:22.647Z,22.60
2022-10-30T19:26:51.348Z,22.88
2022-10-30T19:29:19.971Z,23.83
2022-10-30T19:31:49.237Z,22.73
2022-10-30T19:34:17.848Z,22.83
2022-10-30T19:36:46.496Z,20.80
2022-10-30T19:39:16.990Z,20.33
2022-10-30T19:41:46.990Z,30.58
2022-10-30T19:44:15.622Z,36.05
2022-10-30T19:46:43.860Z,39.63
2022-10-30T19:49:18.619Z,39.67
2022-10-30T19:51:48.632Z,37.50
2022-10-30T19:54:17.192Z,70.03
2022-10-30T19:56:47.182Z,67.15
2022-10-30T19:59:16.516Z,57.05
2022-10-30T20:01:45.221Z,40.30
2022-10-30T20:04:14.053Z,44.90
2022-10-30T20:06:42.849Z,45.85
2022-10-30T20:09:12.455Z,40.33
2022-10-30T20:11:41.363Z,27.80
2022-10-30T20:14:11.395Z,27.17
2022-10-30T20:16:39.920Z,32.67
2022-10-30T20:19:28.975Z,34.00
2022-10-30T20:21:57.671Z,34.63
2022-10-30T20:24:26.287Z,31.77
2022-10-30T20:26:57.243Z,30.42
2022-10-30T20:29:27.367Z,28.00
2022-10-30T20:31:55.628Z,29.98
2022-10-30T20:34:24.219Z,29.13
2022-10-30T20:36:52.811Z,32.35
2022-10-30T20:39:21.366Z,30.73
2022-10-30T20:41:49.921Z,29.75
2022-10-30T20:44:18.455Z,32.05
2022-10-30T20:46:48.083Z,29.30
2022-10-30T20:49:17.479Z,29.58
2022-10-30T20:51:47.686Z,30.70
2022-10-30T20:54:16.354Z,31.05
2022-10-30T20:56:45.026Z,30.90
2022-10-30T20:59:13.590Z,34.63
2022-10-30T21:01:41.926Z,36.10
2022-10-30T21:04:12.097Z,31.42
2022-10-30T21:06:40.857Z,32.35
2022-10-30T21:09:10.103Z,33.88
2022-10-30T21:11:38.792Z,27.85
2022-10-30T21:14:07.462Z,30.45
2022-10-30T21:16:35.746Z,30.02
2022-10-30T21:19:04.509Z,30.48
2022-10-30T21:21:34.666Z,30.42
2022-10-30T21:24:03.279Z,33.05
2022-10-30T21:26:31.831Z,33.15
2022-10-30T21:29:00.428Z,32.75
2022-10-30T21:31:28.650Z,34.92
2022-10-30T21:33:57.249Z,35.10
2022-10-30T21:36:25.836Z,39.35
2022-10-30T21:38:55.800Z,36.30
2022-10-30T21:41:24.982Z,35.30
2022-10-30T21:43:54.136Z,32.83
2022-10-30T21:46:23.699Z,33.23
2022-10-30T21:48:52.457Z,36.45
2022-10-30T21:51:22.771Z,37.30
2022-10-30T21:53:51.728Z,35.80
2022-10-30T21:56:23.363Z,35.85
2022-10-30T21:58:52.153Z,34.00
2022-10-30T22:01:22.135Z,33.53
2022-10-30T22:03:50.917Z,34.13
2022-10-30T22:06:20.679Z,31.83
2022-10-30T22:08:50.244Z,31.33
2022-10-30T22:11:19.110Z,33.70
2022-10-30T22:13:48.799Z,34.50
2022-10-30T22:16:17.377Z,33.50
2022-10-30T22:18:45.997Z,33.17
2022-10-30T22:21:14.819Z,31.90
2022-10-30T22:23:43.716Z,32.60
2022-10-30T22:26:14.549Z,32.88
2022-10-30T22:31:14.273Z,29.23
2022-10-30T22:33:43.287Z,29.95
2022-10-30T22:36:16.250Z,26.83
2022-10-30T22:38:45.001Z,28.75
2022-10-30T22:41:15.307Z,32.65
2022-10-30T22:43:44.754Z,29.08
2022-10-30T22:46:15.679Z,33.90
2022-10-30T22:48:44.803Z,28.52
2022-10-30T22:51:15.670Z,31.75
2022-10-30T22:53:46.333Z,33.53
2022-10-30T22:56:17.200Z,33.35
2022-10-30T23:01:16.763Z,34.70
2022-10-30T23:03:45.778Z,35.20
2022-10-30T23:06:15.012Z,28.63
2022-10-30T23:08:43.888Z,29.13
2022-10-30T23:11:12.637Z,28.63
2022-10-30T23:13:41.494Z,28.77
2022-10-30T23:16:14.179Z,31.02
2022-10-30T23:18:44.840Z,31.52
2022-10-30T23:21:15.163Z,30.80
2022-10-30T23:23:44.647Z,32.45
2022-10-30T23:26:17.130Z,33.47
2022-10-30T23:28:45.922Z,34.55
2022-10-30T23:31:19.622Z,34.10
2022-10-30T23:33:50.804Z,37.58
2022-10-30T23:36:20.097Z,40.58
2022-10-30T23:38:52.428Z,42.80
2022-10-30T23:41:21.360Z,43.55
2022-10-30T23:43:49.729Z,47.70
2022-10-30T23:46:18.474Z,48.00
2022-10-30T23:48:47.094Z,46.33
2022-10-30T23:51:17.466Z,45.30
2022-10-30T23:56:14.796Z,45.17
2022-10-30T23:58:44.311Z,53.05
